Terminal Aerodrome Forecast
Issued by NWS St Louis, MO

Home | Current Version | Previous Version | Text Only | Print | Product List | Glossary On
Versions: 1 2 3 4 5 6 7 8 9 10 11 12 13 14 15 16 17 18 19
000
FTUS43 KLSX 261100
TAFCOU
TAF
KCOU 261125Z 2612/2712 34012KT P6SM SCT120 BKN250
     FM261500 33012G20KT P6SM SKC
     FM270000 33006KT P6SM BKN250
     FM270300 33006KT P6SM BKN050=

USA.gov is the U.S. government's official web portal to all federal, state and local government web resources and services.